sensor_id;sensor_type;location;lat;lon;timestamp;temperature;humidity
6174;DHT22;3120;48.796;9.796;2023-11-21T06:14:23;7.70;99.90
6174;DHT22;3120;48.796;9.796;2023-11-21T06:16:48;7.70;99.90
6174;DHT22;3120;48.796;9.796;2023-11-21T06:19:16;7.60;99.90
6174;DHT22;3120;48.796;9.796;2023-11-21T06:21:45;7.50;99.90
6174;DHT22;3120;48.796;9.796;2023-11-21T06:24:10;7.70;99.90
6174;DHT22;3120;48.796;9.796;2023-11-21T06:26:36;7.30;99.90
6174;DHT22;3120;48.796;9.796;2023-11-21T06:29:01;7.30;99.90
6174;DHT22;3120;48.796;9.796;2023-11-21T06:31:36;7.30;99.90
6174;DHT22;3120;48.796;9.796;2023-11-21T06:34:02;7.50;99.90
6174;DHT22;3120;48.796;9.796;2023-11-21T06:36:28;7.50;99.90
6174;DHT22;3120;48.796;9.796;2023-11-21T06:38:54;7.30;99.90
6174;DHT22;3120;48.796;9.796;2023-11-21T06:41:20;7.40;99.90
6174;DHT22;3120;48.796;9.796;2023-11-21T06:43:46;7.40;99.90
6174;DHT22;3120;48.796;9.796;2023-11-21T06:46:15;7.50;99.90
6174;DHT22;3120;48.796;9.796;2023-11-21T06:48:42;7.60;99.90
6174;DHT22;3120;48.796;9.796;2023-11-21T06:51:07;7.40;99.90
6174;DHT22;3120;48.796;9.796;2023-11-21T06:53:33;7.50;99.90
6174;DHT22;3120;48.796;9.796;2023-11-21T06:55:58;7.50;99.90
6174;DHT22;3120;48.796;9.796;2023-11-21T06:58:24;7.50;99.90
6174;DHT22;3120;48.796;9.796;2023-11-21T07:00:49;7.60;99.90
6174;DHT22;3120;48.796;9.796;2023-11-21T07:03:15;7.50;99.90
6174;DHT22;3120;48.796;9.796;2023-11-21T07:05:41;7.70;99.90
6174;DHT22;3120;48.796;9.796;2023-11-21T07:08:06;7.60;99.90
6174;DHT22;3120;48.796;9.796;2023-11-21T07:10:32;7.70;99.90
6174;DHT22;3120;48.796;9.796;2023-11-21T07:12:58;7.60;99.90
6174;DHT22;3120;48.796;9.796;2023-11-21T07:15:23;7.70;99.90
6174;DHT22;3120;48.796;9.796;2023-11-21T07:17:51;7.80;99.90
6174;DHT22;3120;48.796;9.796;2023-11-21T07:20:16;7.90;99.90
6174;DHT22;3120;48.796;9.796;2023-11-21T07:22:43;7.90;99.90
6174;DHT22;3120;48.796;9.796;2023-11-21T07:25:09;8.00;99.90
6174;DHT22;3120;48.796;9.796;2023-11-21T07:27:37;7.90;99.90
6174;DHT22;3120;48.796;9.796;2023-11-21T07:30:03;7.90;99.90
6174;DHT22;3120;48.796;9.796;2023-11-21T07:32:31;8.10;99.90
6174;DHT22;3120;48.796;9.796;2023-11-21T07:34:56;7.80;99.90
6174;DHT22;3120;48.796;9.796;2023-11-21T07:37:23;7.80;99.90
6174;DHT22;3120;48.796;9.796;2023-11-21T07:39:49;7.60;99.90
6174;DHT22;3120;48.796;9.796;2023-11-21T07:42:15;7.60;99.90
6174;DHT22;3120;48.796;9.796;2023-11-21T07:44:42;7.80;99.90
6174;DHT22;3120;48.796;9.796;2023-11-21T07:47:07;7.70;99.90
6174;DHT22;3120;48.796;9.796;2023-11-21T07:49:32;7.60;99.90
6174;DHT22;3120;48.796;9.796;2023-11-21T07:51:58;7.80;99.90
6174;DHT22;3120;48.796;9.796;2023-11-21T07:54:24;7.80;99.90
6174;DHT22;3120;48.796;9.796;2023-11-21T07:56:49;7.80;99.90
6174;DHT22;3120;48.796;9.796;2023-11-21T07:59:15;8.00;99.90
6174;DHT22;3120;48.796;9.796;2023-11-21T08:01:42;8.10;99.90
6174;DHT22;3120;48.796;9.796;2023-11-21T08:04:08;8.40;99.90
6174;DHT22;3120;48.796;9.796;2023-11-21T08:06:34;8.00;99.90
6174;DHT22;3120;48.796;9.796;2023-11-21T08:08:59;8.10;99.90
6174;DHT22;3120;48.796;9.796;2023-11-21T08:11:25;8.20;99.90
6174;DHT22;3120;48.796;9.796;2023-11-21T08:13:51;8.30;99.90
6174;DHT22;3120;48.796;9.796;2023-11-21T08:16:17;8.50;99.90
6174;DHT22;3120;48.796;9.796;2023-11-21T08:18:42;8.60;99.90
6174;DHT22;3120;48.796;9.796;2023-11-21T08:21:08;8.70;99.90
6174;DHT22;3120;48.796;9.796;2023-11-21T08:23:33;8.80;99.90
6174;DHT22;3120;48.796;9.796;2023-11-21T08:25:59;8.70;99.90
6174;DHT22;3120;48.796;9.796;2023-11-21T08:28:25;8.80;99.90
6174;DHT22;3120;48.796;9.796;2023-11-21T08:30:54;8.90;99.90
6174;DHT22;3120;48.796;9.796;2023-11-21T08:33:19;9.00;99.90
6174;DHT22;3120;48.796;9.796;2023-11-21T08:35:45;9.10;99.90
6174;DHT22;3120;48.796;9.796;2023-11-21T08:38:11;8.80;99.90
6174;DHT22;3120;48.796;9.796;2023-11-21T08:40:37;8.80;99.90
6174;DHT22;3120;48.796;9.796;2023-11-21T08:43:02;8.70;99.90
6174;DHT22;3120;48.796;9.796;2023-11-21T08:45:30;8.70;99.90
6174;DHT22;3120;48.796;9.796;2023-11-21T08:47:55;9.20;99.90
6174;DHT22;3120;48.796;9.796;2023-11-21T08:50:21;8.80;99.90
6174;DHT22;3120;48.796;9.796;2023-11-21T08:52:47;8.70;99.90
6174;DHT22;3120;48.796;9.796;2023-11-21T08:55:12;8.60;99.90
6174;DHT22;3120;48.796;9.796;2023-11-21T08:57:39;8.80;99.90
6174;DHT22;3120;48.796;9.796;2023-11-21T09:00:06;8.60;99.90
6174;DHT22;3120;48.796;9.796;2023-11-21T09:02:35;8.70;99.90
6174;DHT22;3120;48.796;9.796;2023-11-21T09:05:02;8.60;99.90
6174;DHT22;3120;48.796;9.796;2023-11-21T09:07:28;9.00;99.90
6174;DHT22;3120;48.796;9.796;2023-11-21T09:09:54;8.70;99.90
6174;DHT22;3120;48.796;9.796;2023-11-21T09:12:20;8.90;99.90
6174;DHT22;3120;48.796;9.796;2023-11-21T09:14:46;9.10;99.90
6174;DHT22;3120;48.796;9.796;2023-11-21T09:17:11;9.10;99.90
6174;DHT22;3120;48.796;9.796;2023-11-21T09:19:40;9.20;99.90
6174;DHT22;3120;48.796;9.796;2023-11-21T09:22:06;9.50;99.90
6174;DHT22;3120;48.796;9.796;2023-11-21T09:24:32;9.40;99.90
6174;DHT22;3120;48.796;9.796;2023-11-21T09:26:57;9.70;99.90
6174;DHT22;3120;48.796;9.796;2023-11-21T09:29:23;9.50;99.90
6174;DHT22;3120;48.796;9.796;2023-11-21T09:31:49;9.60;99.90
6174;DHT22;3120;48.796;9.796;2023-11-21T09:34:16;9.70;99.90
6174;DHT22;3120;48.796;9.796;2023-11-21T09:36:44;9.60;99.90
6174;DHT22;3120;48.796;9.796;2023-11-21T09:39:10;9.50;99.90
6174;DHT22;3120;48.796;9.796;2023-11-21T09:41:51;9.40;99.90
6174;DHT22;3120;48.796;9.796;2023-11-21T09:44:22;9.70;99.90
6174;DHT22;3120;48.796;9.796;2023-11-21T09:46:55;9.50;99.90
6174;DHT22;3120;48.796;9.796;2023-11-21T09:49:23;9.40;99.90
6174;DHT22;3120;48.796;9.796;2023-11-21T09:51:50;9.40;99.90
6174;DHT22;3120;48.796;9.796;2023-11-21T09:54:19;9.50;99.90
6174;DHT22;3120;48.796;9.796;2023-11-21T09:56:46;9.70;99.90
6174;DHT22;3120;48.796;9.796;2023-11-21T09:59:13;9.60;99.90
6174;DHT22;3120;48.796;9.796;2023-11-21T10:01:39;9.90;99.90
6174;DHT22;3120;48.796;9.796;2023-11-21T10:04:06;9.60;99.90
6174;DHT22;3120;48.796;9.796;2023-11-21T10:06:39;9.80;99.90
6174;DHT22;3120;48.796;9.796;2023-11-21T10:09:10;9.70;99.90
6174;DHT22;3120;48.796;9.796;2023-11-21T10:11:40;9.70;99.90
6174;DHT22;3120;48.796;9.796;2023-11-21T10:14:07;9.70;99.90
6174;DHT22;3120;48.796;9.796;2023-11-21T10:16:35;9.50;99.90
6174;DHT22;3120;48.796;9.796;2023-11-21T10:19:10;9.60;99.90
6174;DHT22;3120;48.796;9.796;2023-11-21T10:21:36;9.90;99.90
6174;DHT22;3120;48.796;9.796;2023-11-21T10:24:03;9.90;99.90
6174;DHT22;3120;48.796;9.796;2023-11-21T10:26:28;10.20;99.90
6174;DHT22;3120;48.796;9.796;2023-11-21T10:29:00;9.80;99.90
6174;DHT22;3120;48.796;9.796;2023-11-21T10:31:26;10.00;99.90
6174;DHT22;3120;48.796;9.796;2023-11-21T10:33:52;10.10;99.90
6174;DHT22;3120;48.796;9.796;2023-11-21T10:36:27;9.90;99.90
6174;DHT22;3120;48.796;9.796;2023-11-21T10:38:53;10.00;99.90
6174;DHT22;3120;48.796;9.796;2023-11-21T10:41:19;9.80;99.90
6174;DHT22;3120;48.796;9.796;2023-11-21T10:43:45;9.90;99.90
6174;DHT22;3120;48.796;9.796;2023-11-21T10:46:10;10.00;99.90
6174;DHT22;3120;48.796;9.796;2023-11-21T10:48:36;10.30;99.90
6174;DHT22;3120;48.796;9.796;2023-11-21T10:51:09;10.10;99.90
6174;DHT22;3120;48.796;9.796;2023-11-21T10:53:38;10.40;99.90
6174;DHT22;3120;48.796;9.796;2023-11-21T10:56:05;10.40;99.90
6174;DHT22;3120;48.796;9.796;2023-11-21T10:58:43;10.50;99.90
6174;DHT22;3120;48.796;9.796;2023-11-21T11:01:08;10.70;99.90
6174;DHT22;3120;48.796;9.796;2023-11-21T11:03:37;10.50;99.90
6174;DHT22;3120;48.796;9.796;2023-11-21T11:06:03;11.40;99.90
6174;DHT22;3120;48.796;9.796;2023-11-21T11:08:30;10.50;99.90
6174;DHT22;3120;48.796;9.796;2023-11-21T11:10:56;10.30;99.90
6174;DHT22;3120;48.796;9.796;2023-11-21T11:13:21;9.60;99.90
6174;DHT22;3120;48.796;9.796;2023-11-21T11:15:48;9.90;99.90
6174;DHT22;3120;48.796;9.796;2023-11-21T11:18:14;9.90;99.90
6174;DHT22;3120;48.796;9.796;2023-11-21T11:20:40;9.90;99.90
6174;DHT22;3120;48.796;9.796;2023-11-21T11:23:17;9.80;99.90
6174;DHT22;3120;48.796;9.796;2023-11-21T11:26:02;10.20;99.90
6174;DHT22;3120;48.796;9.796;2023-11-21T11:28:57;10.20;99.90
6174;DHT22;3120;48.796;9.796;2023-11-21T11:33:59;10.30;99.90
6174;DHT22;3120;48.796;9.796;2023-11-21T11:36:28;10.20;99.90
6174;DHT22;3120;48.796;9.796;2023-11-21T11:38:54;10.30;99.90
6174;DHT22;3120;48.796;9.796;2023-11-21T11:41:29;10.20;99.90
6174;DHT22;3120;48.796;9.796;2023-11-21T11:43:57;10.30;99.90
6174;DHT22;3120;48.796;9.796;2023-11-21T11:46:39;10.20;99.90
6174;DHT22;3120;48.796;9.796;2023-11-21T11:49:06;10.40;99.90
6174;DHT22;3120;48.796;9.796;2023-11-21T11:51:33;10.50;99.90
6174;DHT22;3120;48.796;9.796;2023-11-21T11:54:01;10.60;99.90
6174;DHT22;3120;48.796;9.796;2023-11-21T11:56:27;11.00;99.90
6174;DHT22;3120;48.796;9.796;2023-11-21T11:58:54;11.50;99.90
6174;DHT22;3120;48.796;9.796;2023-11-21T12:01:20;11.80;99.90
6174;DHT22;3120;48.796;9.796;2023-11-21T12:06:32;12.30;99.90
6174;DHT22;3120;48.796;9.796;2023-11-21T12:09:00;12.60;99.90
6174;DHT22;3120;48.796;9.796;2023-11-21T12:11:30;12.30;99.90
6174;DHT22;3120;48.796;9.796;2023-11-21T12:13:55;12.30;99.90
6174;DHT22;3120;48.796;9.796;2023-11-21T12:16:21;12.20;99.90
6174;DHT22;3120;48.796;9.796;2023-11-21T12:18:48;12.30;99.90
6174;DHT22;3120;48.796;9.796;2023-11-21T12:21:13;12.10;99.90
6174;DHT22;3120;48.796;9.796;2023-11-21T12:23:39;12.50;99.90
6174;DHT22;3120;48.796;9.796;2023-11-21T12:26:06;11.90;99.90
6174;DHT22;3120;48.796;9.796;2023-11-21T12:28:31;11.60;99.90
6174;DHT22;3120;48.796;9.796;2023-11-21T12:30:57;11.60;99.90
6174;DHT22;3120;48.796;9.796;2023-11-21T12:33:22;11.40;99.90
6174;DHT22;3120;48.796;9.796;2023-11-21T12:35:48;11.30;99.90
6174;DHT22;3120;48.796;9.796;2023-11-21T12:38:13;11.10;99.90
6174;DHT22;3120;48.796;9.796;2023-11-21T12:40:39;10.90;99.90
6174;DHT22;3120;48.796;9.796;2023-11-21T12:43:05;11.10;99.90
6174;DHT22;3120;48.796;9.796;2023-11-21T12:45:32;11.00;99.90
6174;DHT22;3120;48.796;9.796;2023-11-21T12:48:01;10.90;99.90
6174;DHT22;3120;48.796;9.796;2023-11-21T12:50:29;11.00;99.90
6174;DHT22;3120;48.796;9.796;2023-11-21T12:53:00;11.00;99.90
6174;DHT22;3120;48.796;9.796;2023-11-21T12:55:29;11.30;99.90
6174;DHT22;3120;48.796;9.796;2023-11-21T12:57:55;11.20;99.90
6174;DHT22;3120;48.796;9.796;2023-11-21T13:00:27;11.00;99.90
6174;DHT22;3120;48.796;9.796;2023-11-21T13:02:54;11.20;99.90
6174;DHT22;3120;48.796;9.796;2023-11-21T13:05:26;10.90;99.90
6174;DHT22;3120;48.796;9.796;2023-11-21T13:07:52;11.10;99.90
6174;DHT22;3120;48.796;9.796;2023-11-21T13:10:21;10.90;99.90
6174;DHT22;3120;48.796;9.796;2023-11-21T13:12:50;10.40;99.90
6174;DHT22;3120;48.796;9.796;2023-11-21T13:15:17;10.40;99.90
6174;DHT22;3120;48.796;9.796;2023-11-21T13:17:46;10.50;99.90
6174;DHT22;3120;48.796;9.796;2023-11-21T13:20:12;10.20;99.90
6174;DHT22;3120;48.796;9.796;2023-11-21T13:22:50;9.90;99.90
6174;DHT22;3120;48.796;9.796;2023-11-21T13:25:20;10.00;99.90
6174;DHT22;3120;48.796;9.796;2023-11-21T13:27:46;9.60;99.90
6174;DHT22;3120;48.796;9.796;2023-11-21T13:30:12;9.50;99.90
6174;DHT22;3120;48.796;9.796;2023-11-21T13:32:41;9.60;99.90
6174;DHT22;3120;48.796;9.796;2023-11-21T13:35:07;9.50;99.90
6174;DHT22;3120;48.796;9.796;2023-11-21T13:37:39;9.70;99.90
6174;DHT22;3120;48.796;9.796;2023-11-21T13:40:06;9.50;99.90
6174;DHT22;3120;48.796;9.796;2023-11-21T13:42:40;9.60;99.90
6174;DHT22;3120;48.796;9.796;2023-11-21T13:45:06;9.50;99.90
6174;DHT22;3120;48.796;9.796;2023-11-21T13:47:32;9.60;99.90
6174;DHT22;3120;48.796;9.796;2023-11-21T13:49:59;9.30;99.90
6174;DHT22;3120;48.796;9.796;2023-11-21T13:52:29;9.40;99.90
6174;DHT22;3120;48.796;9.796;2023-11-21T13:54:58;9.50;99.90
6174;DHT22;3120;48.796;9.796;2023-11-21T13:57:26;9.10;99.90
6174;DHT22;3120;48.796;9.796;2023-11-21T13:59:52;9.30;99.90
6174;DHT22;3120;48.796;9.796;2023-11-21T14:02:17;9.40;99.90
6174;DHT22;3120;48.796;9.796;2023-11-21T14:04:44;9.60;99.90
6174;DHT22;3120;48.796;9.796;2023-11-21T14:07:25;9.90;99.90
6174;DHT22;3120;48.796;9.796;2023-11-21T14:09:57;9.90;99.90
6174;DHT22;3120;48.796;9.796;2023-11-21T14:12:24;9.90;99.90
6174;DHT22;3120;48.796;9.796;2023-11-21T14:14:49;9.80;99.90
6174;DHT22;3120;48.796;9.796;2023-11-21T14:17:15;9.80;99.90
6174;DHT22;3120;48.796;9.796;2023-11-21T14:19:40;10.00;99.90
6174;DHT22;3120;48.796;9.796;2023-11-21T14:22:09;9.60;99.90
6174;DHT22;3120;48.796;9.796;2023-11-21T14:24:35;9.40;99.90
6174;DHT22;3120;48.796;9.796;2023-11-21T14:27:00;9.30;99.90
6174;DHT22;3120;48.796;9.796;2023-11-21T14:29:26;9.10;99.90
6174;DHT22;3120;48.796;9.796;2023-11-21T14:31:52;9.00;99.90
6174;DHT22;3120;48.796;9.796;2023-11-21T14:34:21;8.80;99.90
6174;DHT22;3120;48.796;9.796;2023-11-21T14:36:47;8.70;99.90
6174;DHT22;3120;48.796;9.796;2023-11-21T14:39:14;8.50;99.90
6174;DHT22;3120;48.796;9.796;2023-11-21T14:41:52;8.60;99.90
6174;DHT22;3120;48.796;9.796;2023-11-21T14:44:18;8.50;99.90
6174;DHT22;3120;48.796;9.796;2023-11-21T14:46:43;8.50;99.90
6174;DHT22;3120;48.796;9.796;2023-11-21T14:49:11;8.50;99.90
6174;DHT22;3120;48.796;9.796;2023-11-21T14:51:52;8.30;99.90
6174;DHT22;3120;48.796;9.796;2023-11-21T14:54:33;8.50;99.90
6174;DHT22;3120;48.796;9.796;2023-11-21T14:57:12;8.50;99.90
6174;DHT22;3120;48.796;9.796;2023-11-21T14:59:47;8.50;99.90
6174;DHT22;3120;48.796;9.796;2023-11-21T15:02:16;8.50;99.90
6174;DHT22;3120;48.796;9.796;2023-11-21T15:04:44;8.40;99.90
6174;DHT22;3120;48.796;9.796;2023-11-21T15:07:09;8.50;99.90
6174;DHT22;3120;48.796;9.796;2023-11-21T15:09:37;8.50;99.90
6174;DHT22;3120;48.796;9.796;2023-11-21T15:12:10;8.50;99.90
6174;DHT22;3120;48.796;9.796;2023-11-21T15:17:14;8.50;99.90
6174;DHT22;3120;48.796;9.796;2023-11-21T15:19:46;8.50;99.90
6174;DHT22;3120;48.796;9.796;2023-11-21T15:22:11;8.30;99.90
6174;DHT22;3120;48.796;9.796;2023-11-21T15:24:40;8.70;99.90
6174;DHT22;3120;48.796;9.796;2023-11-21T15:27:07;8.20;99.90
6174;DHT22;3120;48.796;9.796;2023-11-21T15:29:32;8.20;99.90
6174;DHT22;3120;48.796;9.796;2023-11-21T15:31:59;8.20;99.90
6174;DHT22;3120;48.796;9.796;2023-11-21T15:34:25;8.10;99.90
6174;DHT22;3120;48.796;9.796;2023-11-21T15:36:51;8.20;99.90
6174;DHT22;3120;48.796;9.796;2023-11-21T15:39:19;8.20;99.90
6174;DHT22;3120;48.796;9.796;2023-11-21T15:41:47;8.10;99.90
6174;DHT22;3120;48.796;9.796;2023-11-21T15:44:12;8.10;99.90
6174;DHT22;3120;48.796;9.796;2023-11-21T15:46:39;8.00;99.90
6174;DHT22;3120;48.796;9.796;2023-11-21T15:49:07;9.40;99.90
6174;DHT22;3120;48.796;9.796;2023-11-21T15:51:42;8.60;99.90
6174;DHT22;3120;48.796;9.796;2023-11-21T15:54:12;8.40;99.90
6174;DHT22;3120;48.796;9.796;2023-11-21T15:56:38;8.50;99.90
6174;DHT22;3120;48.796;9.796;2023-11-21T15:59:07;7.80;99.90
6174;DHT22;3120;48.796;9.796;2023-11-21T16:01:32;8.60;99.90
6174;DHT22;3120;48.796;9.796;2023-11-21T16:03:59;9.40;99.90
6174;DHT22;3120;48.796;9.796;2023-11-21T16:06:26;9.40;99.90
6174;DHT22;3120;48.796;9.796;2023-11-21T16:08:52;7.70;99.90
6174;DHT22;3120;48.796;9.796;2023-11-21T16:11:18;8.00;99.90
6174;DHT22;3120;48.796;9.796;2023-11-21T16:13:45;7.80;99.90
6174;DHT22;3120;48.796;9.796;2023-11-21T16:16:11;8.20;99.90
6174;DHT22;3120;48.796;9.796;2023-11-21T16:18:37;7.90;99.90
6174;DHT22;3120;48.796;9.796;2023-11-21T16:21:03;7.80;99.90
6174;DHT22;3120;48.796;9.796;2023-11-21T16:23:28;8.60;99.90
6174;DHT22;3120;48.796;9.796;2023-11-21T16:25:54;7.80;99.90
6174;DHT22;3120;48.796;9.796;2023-11-21T16:28:21;8.60;99.90
6174;DHT22;3120;48.796;9.796;2023-11-21T16:30:47;8.20;99.90
6174;DHT22;3120;48.796;9.796;2023-11-21T16:33:13;8.30;99.90
6174;DHT22;3120;48.796;9.796;2023-11-21T16:35:38;7.80;99.90
6174;DHT22;3120;48.796;9.796;2023-11-21T16:38:06;9.10;99.90
6174;DHT22;3120;48.796;9.796;2023-11-21T16:40:35;8.20;99.90
6174;DHT22;3120;48.796;9.796;2023-11-21T16:43:02;7.60;99.90
6174;DHT22;3120;48.796;9.796;2023-11-21T16:45:28;8.00;99.90
6174;DHT22;3120;48.796;9.796;2023-11-21T16:47:56;8.00;99.90
6174;DHT22;3120;48.796;9.796;2023-11-21T16:50:22;8.10;99.90
6174;DHT22;3120;48.796;9.796;2023-11-21T16:52:47;7.90;99.90
6174;DHT22;3120;48.796;9.796;2023-11-21T16:55:13;8.00;99.90
6174;DHT22;3120;48.796;9.796;2023-11-21T16:57:46;8.30;99.90
6174;DHT22;3120;48.796;9.796;2023-11-21T17:00:11;9.00;99.90
6174;DHT22;3120;48.796;9.796;2023-11-21T17:02:38;8.50;99.90
6174;DHT22;3120;48.796;9.796;2023-11-21T17:05:04;8.70;99.90
6174;DHT22;3120;48.796;9.796;2023-11-21T17:07:30;8.30;99.90
6174;DHT22;3120;48.796;9.796;2023-11-21T17:09:56;8.10;99.90
6174;DHT22;3120;48.796;9.796;2023-11-21T17:12:22;8.10;99.90
6174;DHT22;3120;48.796;9.796;2023-11-21T17:14:54;7.70;99.90
6174;DHT22;3120;48.796;9.796;2023-11-21T17:17:21;7.90;99.90
6174;DHT22;3120;48.796;9.796;2023-11-21T17:19:48;7.90;99.90
6174;DHT22;3120;48.796;9.796;2023-11-21T17:22:13;8.00;99.90
6174;DHT22;3120;48.796;9.796;2023-11-21T17:24:39;7.80;99.90
6174;DHT22;3120;48.796;9.796;2023-11-21T17:27:04;7.90;99.90
6174;DHT22;3120;48.796;9.796;2023-11-21T17:29:31;7.80;99.90
6174;DHT22;3120;48.796;9.796;2023-11-21T17:31:56;7.90;99.90
6174;DHT22;3120;48.796;9.796;2023-11-21T17:34:22;7.20;99.90
6174;DHT22;3120;48.796;9.796;2023-11-21T17:36:48;7.60;99.90
6174;DHT22;3120;48.796;9.796;2023-11-21T17:39:13;7.30;99.90
6174;DHT22;3120;48.796;9.796;2023-11-21T17:41:39;7.20;99.90
6174;DHT22;3120;48.796;9.796;2023-11-21T17:44:05;7.20;99.90
6174;DHT22;3120;48.796;9.796;2023-11-21T17:46:32;7.60;99.90
6174;DHT22;3120;48.796;9.796;2023-11-21T17:48:58;7.30;99.90
6174;DHT22;3120;48.796;9.796;2023-11-21T17:51:24;7.50;99.90
6174;DHT22;3120;48.796;9.796;2023-11-21T17:58:59;7.30;99.90
6174;DHT22;3120;48.796;9.796;2023-11-21T18:01:25;7.20;99.90
6174;DHT22;3120;48.796;9.796;2023-11-21T18:06:32;7.10;99.90
6174;DHT22;3120;48.796;9.796;2023-11-21T18:08:58;7.00;99.90
6174;DHT22;3120;48.796;9.796;2023-11-21T18:11:27;6.90;99.90
6174;DHT22;3120;48.796;9.796;2023-11-21T18:13:52;6.80;99.90
6174;DHT22;3120;48.796;9.796;2023-11-21T18:16:17;7.00;99.90
6174;DHT22;3120;48.796;9.796;2023-11-21T18:18:43;7.00;99.90
6174;DHT22;3120;48.796;9.796;2023-11-21T18:21:11;6.90;99.90
6174;DHT22;3120;48.796;9.796;2023-11-21T18:23:47;7.10;99.90
6174;DHT22;3120;48.796;9.796;2023-11-21T18:26:16;7.80;99.90
6174;DHT22;3120;48.796;9.796;2023-11-21T18:28:41;7.50;99.90
6174;DHT22;3120;48.796;9.796;2023-11-21T18:31:07;6.70;99.90
6174;DHT22;3120;48.796;9.796;2023-11-21T18:33:32;6.50;99.90
6174;DHT22;3120;48.796;9.796;2023-11-21T18:36:01;6.60;99.90
6174;DHT22;3120;48.796;9.796;2023-11-21T18:38:26;7.00;99.90
6174;DHT22;3120;48.796;9.796;2023-11-21T18:40:52;6.90;99.90
6174;DHT22;3120;48.796;9.796;2023-11-21T18:43:18;6.80;99.90
6174;DHT22;3120;48.796;9.796;2023-11-21T18:45:43;8.20;99.90
6174;DHT22;3120;48.796;9.796;2023-11-21T18:48:09;6.60;99.90
6174;DHT22;3120;48.796;9.796;2023-11-21T18:50:37;6.50;99.90
6174;DHT22;3120;48.796;9.796;2023-11-21T18:53:03;6.60;99.90
6174;DHT22;3120;48.796;9.796;2023-11-21T18:55:28;7.30;99.90
6174;DHT22;3120;48.796;9.796;2023-11-21T18:57:54;6.90;99.90
6174;DHT22;3120;48.796;9.796;2023-11-21T19:00:20;6.90;99.90
6174;DHT22;3120;48.796;9.796;2023-11-21T19:05:15;6.90;99.90
6174;DHT22;3120;48.796;9.796;2023-11-21T19:07:42;6.80;99.90
6174;DHT22;3120;48.796;9.796;2023-11-21T19:10:07;7.00;99.90
6174;DHT22;3120;48.796;9.796;2023-11-21T19:12:36;7.20;99.90
6174;DHT22;3120;48.796;9.796;2023-11-21T19:15:05;6.80;99.90
6174;DHT22;3120;48.796;9.796;2023-11-21T19:17:30;7.10;99.90
6174;DHT22;3120;48.796;9.796;2023-11-21T19:19:57;6.90;99.90
6174;DHT22;3120;48.796;9.796;2023-11-21T19:22:22;6.90;99.90
6174;DHT22;3120;48.796;9.796;2023-11-21T19:24:48;7.00;99.90
6174;DHT22;3120;48.796;9.796;2023-11-21T19:27:14;7.10;99.90
6174;DHT22;3120;48.796;9.796;2023-11-21T19:29:39;6.80;99.90
6174;DHT22;3120;48.796;9.796;2023-11-21T19:32:05;7.20;99.90
6174;DHT22;3120;48.796;9.796;2023-11-21T19:34:30;7.20;99.90
6174;DHT22;3120;48.796;9.796;2023-11-21T19:36:56;6.90;99.90
6174;DHT22;3120;48.796;9.796;2023-11-21T19:39:23;7.00;99.90
6174;DHT22;3120;48.796;9.796;2023-11-21T19:41:48;6.90;99.90
6174;DHT22;3120;48.796;9.796;2023-11-21T19:44:14;6.80;99.90
6174;DHT22;3120;48.796;9.796;2023-11-21T19:46:39;6.90;99.90
6174;DHT22;3120;48.796;9.796;2023-11-21T19:49:05;6.80;99.90
6174;DHT22;3120;48.796;9.796;2023-11-21T19:51:34;6.70;99.90
6174;DHT22;3120;48.796;9.796;2023-11-21T19:53:59;7.00;99.90
6174;DHT22;3120;48.796;9.796;2023-11-21T19:56:25;6.60;99.90
6174;DHT22;3120;48.796;9.796;2023-11-21T19:58:50;6.70;99.90
6174;DHT22;3120;48.796;9.796;2023-11-21T20:01:16;7.10;99.90
6174;DHT22;3120;48.796;9.796;2023-11-21T20:03:43;6.90;99.90
6174;DHT22;3120;48.796;9.796;2023-11-21T20:06:09;7.00;99.90
6174;DHT22;3120;48.796;9.796;2023-11-21T20:08:35;8.10;99.90
6174;DHT22;3120;48.796;9.796;2023-11-21T20:11:01;7.20;99.90
6174;DHT22;3120;48.796;9.796;2023-11-21T20:13:26;6.80;99.90
6174;DHT22;3120;48.796;9.796;2023-11-21T20:15:52;6.80;99.90
6174;DHT22;3120;48.796;9.796;2023-11-21T20:18:18;6.90;99.90
6174;DHT22;3120;48.796;9.796;2023-11-21T20:20:43;6.80;99.90
6174;DHT22;3120;48.796;9.796;2023-11-21T20:23:08;6.90;99.90
6174;DHT22;3120;48.796;9.796;2023-11-21T20:25:34;7.60;99.90
6174;DHT22;3120;48.796;9.796;2023-11-21T20:28:00;7.20;99.90
6174;DHT22;3120;48.796;9.796;2023-11-21T20:30:25;6.90;99.90
6174;DHT22;3120;48.796;9.796;2023-11-21T20:32:59;6.80;99.90
6174;DHT22;3120;48.796;9.796;2023-11-21T20:35:24;7.10;99.90
6174;DHT22;3120;48.796;9.796;2023-11-21T20:37:50;6.90;99.90
6174;DHT22;3120;48.796;9.796;2023-11-21T20:40:15;7.10;99.90
6174;DHT22;3120;48.796;9.796;2023-11-21T20:42:41;7.10;99.90
6174;DHT22;3120;48.796;9.796;2023-11-21T20:45:09;6.90;99.90
6174;DHT22;3120;48.796;9.796;2023-11-21T20:47:35;7.20;99.90
6174;DHT22;3120;48.796;9.796;2023-11-21T20:50:01;7.10;99.90
6174;DHT22;3120;48.796;9.796;2023-11-21T20:52:28;6.90;99.90
6174;DHT22;3120;48.796;9.796;2023-11-21T20:54:54;7.00;99.90
6174;DHT22;3120;48.796;9.796;2023-11-21T20:57:20;6.90;99.90
6174;DHT22;3120;48.796;9.796;2023-11-21T20:59:46;6.90;99.90
6174;DHT22;3120;48.796;9.796;2023-11-21T21:02:11;7.20;99.90
6174;DHT22;3120;48.796;9.796;2023-11-21T21:04:37;6.80;99.90
6174;DHT22;3120;48.796;9.796;2023-11-21T21:07:02;9.20;99.90
6174;DHT22;3120;48.796;9.796;2023-11-21T21:09:28;7.20;99.90
6174;DHT22;3120;48.796;9.796;2023-11-21T21:11:54;7.20;99.90
6174;DHT22;3120;48.796;9.796;2023-11-21T21:14:19;7.00;99.90
6174;DHT22;3120;48.796;9.796;2023-11-21T21:16:45;6.80;99.90
6174;DHT22;3120;48.796;9.796;2023-11-21T21:19:11;6.90;99.90
6174;DHT22;3120;48.796;9.796;2023-11-21T21:21:38;6.90;99.90
6174;DHT22;3120;48.796;9.796;2023-11-21T21:24:04;6.90;99.90
6174;DHT22;3120;48.796;9.796;2023-11-21T21:26:30;7.10;99.90
6174;DHT22;3120;48.796;9.796;2023-11-21T21:28:56;7.00;99.90
6174;DHT22;3120;48.796;9.796;2023-11-21T21:31:22;6.80;99.90
6174;DHT22;3120;48.796;9.796;2023-11-21T21:33:50;7.20;99.90
6174;DHT22;3120;48.796;9.796;2023-11-21T21:36:20;7.30;99.90
6174;DHT22;3120;48.796;9.796;2023-11-21T21:38:47;7.20;99.90
6174;DHT22;3120;48.796;9.796;2023-11-21T21:41:13;7.30;99.90
6174;DHT22;3120;48.796;9.796;2023-11-21T21:43:40;7.20;99.90
6174;DHT22;3120;48.796;9.796;2023-11-21T21:46:06;8.30;99.90
6174;DHT22;3120;48.796;9.796;2023-11-21T21:48:33;7.40;99.90
6174;DHT22;3120;48.796;9.796;2023-11-21T21:51:00;7.10;99.90
6174;DHT22;3120;48.796;9.796;2023-11-21T21:53:26;7.20;99.90
6174;DHT22;3120;48.796;9.796;2023-11-21T21:55:51;7.30;99.90
6174;DHT22;3120;48.796;9.796;2023-11-21T21:58:17;7.20;99.90
6174;DHT22;3120;48.796;9.796;2023-11-21T22:00:43;6.80;99.90
6174;DHT22;3120;48.796;9.796;2023-11-21T22:03:08;8.00;99.90
6174;DHT22;3120;48.796;9.796;2023-11-21T22:05:34;7.00;99.90
6174;DHT22;3120;48.796;9.796;2023-11-21T22:08:00;7.40;99.90
6174;DHT22;3120;48.796;9.796;2023-11-21T22:10:26;6.90;99.90
6174;DHT22;3120;48.796;9.796;2023-11-21T22:12:52;7.00;99.90
6174;DHT22;3120;48.796;9.796;2023-11-21T22:15:19;7.00;99.90
6174;DHT22;3120;48.796;9.796;2023-11-21T22:17:44;6.80;99.90
6174;DHT22;3120;48.796;9.796;2023-11-21T22:20:10;7.20;99.90
6174;DHT22;3120;48.796;9.796;2023-11-21T22:22:36;7.20;99.90
6174;DHT22;3120;48.796;9.796;2023-11-21T22:25:01;7.30;99.90
6174;DHT22;3120;48.796;9.796;2023-11-21T22:27:28;7.20;99.90
6174;DHT22;3120;48.796;9.796;2023-11-21T22:29:54;7.20;99.90
6174;DHT22;3120;48.796;9.796;2023-11-21T22:32:20;7.30;99.90
6174;DHT22;3120;48.796;9.796;2023-11-21T22:34:45;7.40;99.90
6174;DHT22;3120;48.796;9.796;2023-11-21T22:37:10;7.60;99.90
6174;DHT22;3120;48.796;9.796;2023-11-21T22:39:36;7.30;99.90
6174;DHT22;3120;48.796;9.796;2023-11-21T22:42:02;7.30;99.90
6174;DHT22;3120;48.796;9.796;2023-11-21T22:44:27;7.60;99.90